sensor_id;sensor_type;location;lat;lon;timestamp;P1;durP1;ratioP1;P2;durP2;ratioP2
11791;SDS011;5953;52.372;9.918;2023-04-25T00:01:57;11.27;;;4.40;;
11791;SDS011;5953;52.372;9.918;2023-04-25T00:04:26;10.90;;;4.40;;
11791;SDS011;5953;52.372;9.918;2023-04-25T00:06:56;12.47;;;4.80;;
11791;SDS011;5953;52.372;9.918;2023-04-25T00:09:25;8.57;;;4.33;;
11791;SDS011;5953;52.372;9.918;2023-04-25T00:11:54;10.00;;;4.87;;
11791;SDS011;5953;52.372;9.918;2023-04-25T00:14:22;9.93;;;5.00;;
11791;SDS011;5953;52.372;9.918;2023-04-25T00:16:50;11.33;;;5.60;;
11791;SDS011;5953;52.372;9.918;2023-04-25T00:19:18;8.97;;;4.60;;
11791;SDS011;5953;52.372;9.918;2023-04-25T00:21:45;9.27;;;4.43;;
11791;SDS011;5953;52.372;9.918;2023-04-25T00:24:13;8.60;;;5.10;;
11791;SDS011;5953;52.372;9.918;2023-04-25T00:26:43;9.73;;;4.73;;
11791;SDS011;5953;52.372;9.918;2023-04-25T00:29:10;11.17;;;4.77;;
11791;SDS011;5953;52.372;9.918;2023-04-25T00:31:38;11.47;;;4.50;;
11791;SDS011;5953;52.372;9.918;2023-04-25T00:34:06;8.90;;;4.73;;
11791;SDS011;5953;52.372;9.918;2023-04-25T00:36:35;9.93;;;4.10;;
11791;SDS011;5953;52.372;9.918;2023-04-25T00:39:04;11.77;;;4.70;;
11791;SDS011;5953;52.372;9.918;2023-04-25T00:41:32;7.47;;;4.10;;
11791;SDS011;5953;52.372;9.918;2023-04-25T00:44:01;14.70;;;4.37;;
11791;SDS011;5953;52.372;9.918;2023-04-25T00:46:30;8.70;;;4.53;;
11791;SDS011;5953;52.372;9.918;2023-04-25T00:48:58;12.63;;;4.63;;
11791;SDS011;5953;52.372;9.918;2023-04-25T00:51:26;12.07;;;4.47;;
11791;SDS011;5953;52.372;9.918;2023-04-25T00:53:54;8.37;;;4.00;;
11791;SDS011;5953;52.372;9.918;2023-04-25T00:56:22;8.83;;;4.63;;
11791;SDS011;5953;52.372;9.918;2023-04-25T00:58:50;10.17;;;4.40;;
11791;SDS011;5953;52.372;9.918;2023-04-25T01:01:21;11.67;;;4.87;;
11791;SDS011;5953;52.372;9.918;2023-04-25T01:03:49;9.93;;;4.10;;
11791;SDS011;5953;52.372;9.918;2023-04-25T01:06:18;8.77;;;4.20;;
11791;SDS011;5953;52.372;9.918;2023-04-25T01:08:46;9.87;;;4.70;;
11791;SDS011;5953;52.372;9.918;2023-04-25T01:11:13;9.20;;;4.53;;
11791;SDS011;5953;52.372;9.918;2023-04-25T01:13:41;8.87;;;5.00;;
11791;SDS011;5953;52.372;9.918;2023-04-25T01:16:09;16.30;;;5.37;;
11791;SDS011;5953;52.372;9.918;2023-04-25T01:18:39;13.80;;;4.90;;
11791;SDS011;5953;52.372;9.918;2023-04-25T01:21:09;13.30;;;4.80;;
11791;SDS011;5953;52.372;9.918;2023-04-25T01:23:40;8.57;;;4.60;;
11791;SDS011;5953;52.372;9.918;2023-04-25T01:26:09;9.17;;;4.43;;
11791;SDS011;5953;52.372;9.918;2023-04-25T01:28:38;8.73;;;5.00;;
11791;SDS011;5953;52.372;9.918;2023-04-25T01:31:07;9.93;;;4.57;;
11791;SDS011;5953;52.372;9.918;2023-04-25T01:33:35;9.37;;;4.67;;
11791;SDS011;5953;52.372;9.918;2023-04-25T01:36:03;10.50;;;5.57;;
11791;SDS011;5953;52.372;9.918;2023-04-25T01:38:33;16.33;;;6.93;;
11791;SDS011;5953;52.372;9.918;2023-04-25T01:41:02;13.00;;;5.27;;
11791;SDS011;5953;52.372;9.918;2023-04-25T01:43:30;10.33;;;5.63;;
11791;SDS011;5953;52.372;9.918;2023-04-25T01:45:58;11.50;;;5.40;;
11791;SDS011;5953;52.372;9.918;2023-04-25T01:48:27;12.47;;;6.17;;
11791;SDS011;5953;52.372;9.918;2023-04-25T01:50:54;10.93;;;5.70;;
11791;SDS011;5953;52.372;9.918;2023-04-25T01:53:22;12.53;;;5.30;;
11791;SDS011;5953;52.372;9.918;2023-04-25T01:55:52;9.00;;;5.77;;
11791;SDS011;5953;52.372;9.918;2023-04-25T01:58:20;10.03;;;5.53;;
11791;SDS011;5953;52.372;9.918;2023-04-25T02:00:47;9.13;;;5.73;;
11791;SDS011;5953;52.372;9.918;2023-04-25T02:03:15;13.07;;;5.03;;
11791;SDS011;5953;52.372;9.918;2023-04-25T02:05:43;14.00;;;5.93;;
11791;SDS011;5953;52.372;9.918;2023-04-25T02:08:11;15.53;;;6.33;;
11791;SDS011;5953;52.372;9.918;2023-04-25T02:10:39;9.87;;;5.87;;
11791;SDS011;5953;52.372;9.918;2023-04-25T02:13:08;13.43;;;6.47;;
11791;SDS011;5953;52.372;9.918;2023-04-25T02:15:36;13.50;;;6.00;;
11791;SDS011;5953;52.372;9.918;2023-04-25T02:18:04;9.77;;;5.67;;
11791;SDS011;5953;52.372;9.918;2023-04-25T02:20:32;9.17;;;5.83;;
11791;SDS011;5953;52.372;9.918;2023-04-25T02:23:00;9.20;;;5.90;;
11791;SDS011;5953;52.372;9.918;2023-04-25T02:25:28;9.83;;;5.53;;
11791;SDS011;5953;52.372;9.918;2023-04-25T02:27:56;9.43;;;4.77;;
11791;SDS011;5953;52.372;9.918;2023-04-25T02:30:25;8.23;;;5.53;;
11791;SDS011;5953;52.372;9.918;2023-04-25T02:32:53;6.73;;;4.67;;
11791;SDS011;5953;52.372;9.918;2023-04-25T02:35:21;7.67;;;4.53;;
11791;SDS011;5953;52.372;9.918;2023-04-25T02:37:49;8.80;;;5.27;;
11791;SDS011;5953;52.372;9.918;2023-04-25T02:40:16;12.00;;;5.40;;
11791;SDS011;5953;52.372;9.918;2023-04-25T02:42:44;10.83;;;5.33;;
11791;SDS011;5953;52.372;9.918;2023-04-25T02:45:12;13.60;;;5.70;;
11791;SDS011;5953;52.372;9.918;2023-04-25T02:47:42;11.77;;;5.37;;
11791;SDS011;5953;52.372;9.918;2023-04-25T02:50:10;8.93;;;4.53;;
11791;SDS011;5953;52.372;9.918;2023-04-25T02:52:38;12.40;;;4.33;;
11791;SDS011;5953;52.372;9.918;2023-04-25T02:55:06;13.47;;;4.40;;
11791;SDS011;5953;52.372;9.918;2023-04-25T02:57:34;10.77;;;4.20;;
11791;SDS011;5953;52.372;9.918;2023-04-25T03:00:02;9.60;;;4.20;;
11791;SDS011;5953;52.372;9.918;2023-04-25T03:02:32;9.23;;;3.83;;
11791;SDS011;5953;52.372;9.918;2023-04-25T03:05:01;8.10;;;3.87;;
11791;SDS011;5953;52.372;9.918;2023-04-25T03:07:29;15.30;;;4.17;;
11791;SDS011;5953;52.372;9.918;2023-04-25T03:09:57;11.80;;;4.60;;
11791;SDS011;5953;52.372;9.918;2023-04-25T03:12:25;13.90;;;3.90;;
11791;SDS011;5953;52.372;9.918;2023-04-25T03:14:52;13.87;;;4.27;;
11791;SDS011;5953;52.372;9.918;2023-04-25T03:17:20;15.60;;;3.87;;
11791;SDS011;5953;52.372;9.918;2023-04-25T03:19:48;12.40;;;3.57;;
11791;SDS011;5953;52.372;9.918;2023-04-25T03:22:17;12.27;;;3.47;;
11791;SDS011;5953;52.372;9.918;2023-04-25T03:24:45;13.50;;;4.20;;
11791;SDS011;5953;52.372;9.918;2023-04-25T03:27:13;7.40;;;3.27;;
11791;SDS011;5953;52.372;9.918;2023-04-25T03:29:41;12.37;;;3.23;;
11791;SDS011;5953;52.372;9.918;2023-04-25T03:32:09;13.63;;;3.47;;
11791;SDS011;5953;52.372;9.918;2023-04-25T03:34:37;12.03;;;3.70;;
11791;SDS011;5953;52.372;9.918;2023-04-25T03:37:05;14.43;;;3.90;;
11791;SDS011;5953;52.372;9.918;2023-04-25T03:39:34;13.73;;;4.13;;
11791;SDS011;5953;52.372;9.918;2023-04-25T03:42:02;18.70;;;4.70;;
11791;SDS011;5953;52.372;9.918;2023-04-25T03:44:30;13.17;;;3.50;;
11791;SDS011;5953;52.372;9.918;2023-04-25T03:46:58;17.47;;;4.47;;
11791;SDS011;5953;52.372;9.918;2023-04-25T03:49:26;11.57;;;3.73;;
11791;SDS011;5953;52.372;9.918;2023-04-25T03:51:53;19.57;;;4.43;;
11791;SDS011;5953;52.372;9.918;2023-04-25T03:54:21;16.93;;;4.30;;
11791;SDS011;5953;52.372;9.918;2023-04-25T03:56:50;14.03;;;3.70;;
11791;SDS011;5953;52.372;9.918;2023-04-25T03:59:18;15.37;;;4.37;;
11791;SDS011;5953;52.372;9.918;2023-04-25T04:01:46;17.67;;;4.37;;
11791;SDS011;5953;52.372;9.918;2023-04-25T04:04:13;13.63;;;4.20;;
11791;SDS011;5953;52.372;9.918;2023-04-25T04:06:42;17.77;;;4.23;;
11791;SDS011;5953;52.372;9.918;2023-04-25T04:09:09;17.17;;;3.90;;
11791;SDS011;5953;52.372;9.918;2023-04-25T04:11:38;15.33;;;3.80;;
11791;SDS011;5953;52.372;9.918;2023-04-25T04:14:08;12.10;;;3.93;;
11791;SDS011;5953;52.372;9.918;2023-04-25T04:16:36;17.57;;;4.00;;
11791;SDS011;5953;52.372;9.918;2023-04-25T04:19:04;10.70;;;3.83;;
11791;SDS011;5953;52.372;9.918;2023-04-25T04:21:32;13.67;;;3.80;;
11791;SDS011;5953;52.372;9.918;2023-04-25T04:24:00;20.73;;;4.00;;
11791;SDS011;5953;52.372;9.918;2023-04-25T04:26:28;14.43;;;3.93;;
11791;SDS011;5953;52.372;9.918;2023-04-25T04:28:58;18.43;;;4.07;;
11791;SDS011;5953;52.372;9.918;2023-04-25T04:31:27;15.47;;;3.43;;
11791;SDS011;5953;52.372;9.918;2023-04-25T04:33:56;16.30;;;3.50;;
11791;SDS011;5953;52.372;9.918;2023-04-25T04:36:24;13.20;;;3.43;;
11791;SDS011;5953;52.372;9.918;2023-04-25T04:38:52;12.70;;;3.70;;
11791;SDS011;5953;52.372;9.918;2023-04-25T04:41:20;16.37;;;3.67;;
11791;SDS011;5953;52.372;9.918;2023-04-25T04:43:48;14.93;;;3.70;;
11791;SDS011;5953;52.372;9.918;2023-04-25T04:46:17;15.17;;;4.80;;
11791;SDS011;5953;52.372;9.918;2023-04-25T04:48:46;14.07;;;3.60;;
11791;SDS011;5953;52.372;9.918;2023-04-25T04:51:14;16.47;;;4.63;;
11791;SDS011;5953;52.372;9.918;2023-04-25T04:53:42;16.03;;;4.10;;
11791;SDS011;5953;52.372;9.918;2023-04-25T04:56:10;12.60;;;3.60;;
11791;SDS011;5953;52.372;9.918;2023-04-25T04:58:38;16.60;;;4.60;;
11791;SDS011;5953;52.372;9.918;2023-04-25T05:01:06;14.53;;;4.67;;
11791;SDS011;5953;52.372;9.918;2023-04-25T05:03:33;13.60;;;4.40;;
11791;SDS011;5953;52.372;9.918;2023-04-25T05:06:03;16.00;;;4.50;;
11791;SDS011;5953;52.372;9.918;2023-04-25T05:08:31;25.50;;;4.43;;
11791;SDS011;5953;52.372;9.918;2023-04-25T05:10:59;15.20;;;3.43;;
11791;SDS011;5953;52.372;9.918;2023-04-25T05:13:27;23.33;;;4.13;;
11791;SDS011;5953;52.372;9.918;2023-04-25T05:15:55;16.17;;;4.47;;
11791;SDS011;5953;52.372;9.918;2023-04-25T05:18:22;14.53;;;3.77;;
11791;SDS011;5953;52.372;9.918;2023-04-25T05:20:51;16.47;;;4.17;;
11791;SDS011;5953;52.372;9.918;2023-04-25T05:23:20;18.10;;;4.23;;
11791;SDS011;5953;52.372;9.918;2023-04-25T05:25:48;10.00;;;3.33;;
11791;SDS011;5953;52.372;9.918;2023-04-25T05:28:16;18.43;;;4.53;;
11791;SDS011;5953;52.372;9.918;2023-04-25T05:30:44;19.27;;;3.90;;
11791;SDS011;5953;52.372;9.918;2023-04-25T05:33:12;19.53;;;4.10;;
11791;SDS011;5953;52.372;9.918;2023-04-25T05:35:39;20.30;;;4.47;;
11791;SDS011;5953;52.372;9.918;2023-04-25T05:38:07;19.77;;;4.37;;
11791;SDS011;5953;52.372;9.918;2023-04-25T05:40:36;15.07;;;4.17;;
11791;SDS011;5953;52.372;9.918;2023-04-25T05:43:04;18.43;;;3.43;;
11791;SDS011;5953;52.372;9.918;2023-04-25T05:45:32;16.93;;;3.97;;
11791;SDS011;5953;52.372;9.918;2023-04-25T05:48:00;15.23;;;3.80;;
11791;SDS011;5953;52.372;9.918;2023-04-25T05:50:28;17.70;;;3.57;;
11791;SDS011;5953;52.372;9.918;2023-04-25T05:52:56;14.67;;;3.80;;
11791;SDS011;5953;52.372;9.918;2023-04-25T05:55:24;18.30;;;3.80;;
11791;SDS011;5953;52.372;9.918;2023-04-25T05:57:53;15.77;;;3.57;;
11791;SDS011;5953;52.372;9.918;2023-04-25T06:00:21;12.53;;;3.43;;
11791;SDS011;5953;52.372;9.918;2023-04-25T06:02:50;19.83;;;3.80;;
11791;SDS011;5953;52.372;9.918;2023-04-25T06:05:18;14.90;;;3.13;;
11791;SDS011;5953;52.372;9.918;2023-04-25T06:07:46;15.43;;;3.07;;
11791;SDS011;5953;52.372;9.918;2023-04-25T06:10:14;15.17;;;4.07;;
11791;SDS011;5953;52.372;9.918;2023-04-25T06:12:42;14.47;;;3.27;;
11791;SDS011;5953;52.372;9.918;2023-04-25T06:15:12;12.63;;;3.30;;
11791;SDS011;5953;52.372;9.918;2023-04-25T06:17:54;12.00;;;3.17;;
11791;SDS011;5953;52.372;9.918;2023-04-25T06:20:22;16.33;;;3.57;;
11791;SDS011;5953;52.372;9.918;2023-04-25T06:22:50;12.93;;;3.70;;
11791;SDS011;5953;52.372;9.918;2023-04-25T06:25:19;13.67;;;3.37;;
11791;SDS011;5953;52.372;9.918;2023-04-25T06:27:47;18.67;;;3.13;;
11791;SDS011;5953;52.372;9.918;2023-04-25T06:30:16;14.97;;;3.30;;
11791;SDS011;5953;52.372;9.918;2023-04-25T06:32:48;11.67;;;3.10;;
11791;SDS011;5953;52.372;9.918;2023-04-25T06:35:16;12.60;;;2.93;;
11791;SDS011;5953;52.372;9.918;2023-04-25T06:37:44;10.60;;;3.47;;
11791;SDS011;5953;52.372;9.918;2023-04-25T06:40:12;15.83;;;3.97;;
11791;SDS011;5953;52.372;9.918;2023-04-25T06:42:41;11.47;;;2.93;;
11791;SDS011;5953;52.372;9.918;2023-04-25T06:45:09;10.57;;;2.73;;
11791;SDS011;5953;52.372;9.918;2023-04-25T06:47:38;17.97;;;3.67;;
11791;SDS011;5953;52.372;9.918;2023-04-25T06:50:07;12.53;;;3.90;;
11791;SDS011;5953;52.372;9.918;2023-04-25T06:52:35;14.03;;;3.20;;
11791;SDS011;5953;52.372;9.918;2023-04-25T06:55:03;10.00;;;3.10;;
11791;SDS011;5953;52.372;9.918;2023-04-25T06:57:34;11.33;;;3.53;;
11791;SDS011;5953;52.372;9.918;2023-04-25T07:00:02;11.27;;;3.77;;
11791;SDS011;5953;52.372;9.918;2023-04-25T07:02:34;11.37;;;2.90;;
11791;SDS011;5953;52.372;9.918;2023-04-25T07:05:04;10.57;;;2.97;;
11791;SDS011;5953;52.372;9.918;2023-04-25T07:07:32;12.43;;;3.57;;
11791;SDS011;5953;52.372;9.918;2023-04-25T07:10:00;12.97;;;3.40;;
11791;SDS011;5953;52.372;9.918;2023-04-25T07:12:28;14.10;;;2.30;;
11791;SDS011;5953;52.372;9.918;2023-04-25T07:14:56;11.53;;;2.97;;
11791;SDS011;5953;52.372;9.918;2023-04-25T07:17:24;9.83;;;3.43;;
11791;SDS011;5953;52.372;9.918;2023-04-25T07:19:51;13.77;;;3.00;;
11791;SDS011;5953;52.372;9.918;2023-04-25T07:22:21;15.83;;;3.30;;
11791;SDS011;5953;52.372;9.918;2023-04-25T07:24:49;9.93;;;2.57;;
11791;SDS011;5953;52.372;9.918;2023-04-25T07:27:17;12.80;;;3.27;;
11791;SDS011;5953;52.372;9.918;2023-04-25T07:29:45;14.60;;;4.00;;
11791;SDS011;5953;52.372;9.918;2023-04-25T07:32:13;13.87;;;4.07;;
11791;SDS011;5953;52.372;9.918;2023-04-25T07:34:41;12.40;;;3.07;;
11791;SDS011;5953;52.372;9.918;2023-04-25T07:37:09;8.93;;;3.17;;
11791;SDS011;5953;52.372;9.918;2023-04-25T07:39:38;15.43;;;3.27;;
11791;SDS011;5953;52.372;9.918;2023-04-25T07:42:06;12.33;;;3.73;;
11791;SDS011;5953;52.372;9.918;2023-04-25T07:44:34;12.27;;;3.00;;
11791;SDS011;5953;52.372;9.918;2023-04-25T07:47:05;9.90;;;2.97;;
11791;SDS011;5953;52.372;9.918;2023-04-25T07:49:34;11.30;;;3.47;;
11791;SDS011;5953;52.372;9.918;2023-04-25T07:52:02;8.67;;;2.30;;
11791;SDS011;5953;52.372;9.918;2023-04-25T07:54:31;9.40;;;2.27;;
11791;SDS011;5953;52.372;9.918;2023-04-25T07:57:01;12.77;;;2.63;;
11791;SDS011;5953;52.372;9.918;2023-04-25T07:59:29;10.23;;;2.60;;
11791;SDS011;5953;52.372;9.918;2023-04-25T08:01:57;10.00;;;3.17;;
11791;SDS011;5953;52.372;9.918;2023-04-25T08:04:24;10.27;;;3.07;;
11791;SDS011;5953;52.372;9.918;2023-04-25T08:06:53;8.83;;;2.83;;
11791;SDS011;5953;52.372;9.918;2023-04-25T08:09:21;11.13;;;2.60;;
11791;SDS011;5953;52.372;9.918;2023-04-25T08:11:49;14.13;;;3.30;;
11791;SDS011;5953;52.372;9.918;2023-04-25T08:14:19;14.60;;;2.57;;
11791;SDS011;5953;52.372;9.918;2023-04-25T08:16:46;11.23;;;2.43;;
11791;SDS011;5953;52.372;9.918;2023-04-25T08:19:14;10.80;;;2.83;;
11791;SDS011;5953;52.372;9.918;2023-04-25T08:21:42;13.30;;;4.13;;
11791;SDS011;5953;52.372;9.918;2023-04-25T08:24:10;9.53;;;2.77;;
11791;SDS011;5953;52.372;9.918;2023-04-25T08:26:38;12.60;;;3.00;;
11791;SDS011;5953;52.372;9.918;2023-04-25T08:29:07;6.87;;;2.20;;
11791;SDS011;5953;52.372;9.918;2023-04-25T08:31:36;13.73;;;2.43;;
11791;SDS011;5953;52.372;9.918;2023-04-25T08:34:04;8.20;;;2.33;;
11791;SDS011;5953;52.372;9.918;2023-04-25T08:36:32;12.17;;;3.67;;
11791;SDS011;5953;52.372;9.918;2023-04-25T08:39:05;12.07;;;2.43;;
11791;SDS011;5953;52.372;9.918;2023-04-25T08:41:33;8.00;;;2.00;;
11791;SDS011;5953;52.372;9.918;2023-04-25T08:44:03;4.53;;;1.83;;
11791;SDS011;5953;52.372;9.918;2023-04-25T08:46:32;7.30;;;1.80;;
11791;SDS011;5953;52.372;9.918;2023-04-25T08:49:01;5.53;;;2.00;;
11791;SDS011;5953;52.372;9.918;2023-04-25T08:51:31;7.50;;;1.93;;
11791;SDS011;5953;52.372;9.918;2023-04-25T08:54:02;7.20;;;1.70;;
11791;SDS011;5953;52.372;9.918;2023-04-25T08:56:57;7.37;;;2.10;;
11791;SDS011;5953;52.372;9.918;2023-04-25T08:59:28;8.63;;;1.63;;
11791;SDS011;5953;52.372;9.918;2023-04-25T09:01:57;13.30;;;2.60;;
11791;SDS011;5953;52.372;9.918;2023-04-25T09:04:26;8.87;;;2.30;;
11791;SDS011;5953;52.372;9.918;2023-04-25T09:06:54;8.00;;;3.07;;
11791;SDS011;5953;52.372;9.918;2023-04-25T09:09:23;7.93;;;2.80;;
11791;SDS011;5953;52.372;9.918;2023-04-25T09:11:51;9.00;;;2.33;;
11791;SDS011;5953;52.372;9.918;2023-04-25T09:14:22;6.80;;;2.27;;
11791;SDS011;5953;52.372;9.918;2023-04-25T09:16:58;8.70;;;2.43;;
11791;SDS011;5953;52.372;9.918;2023-04-25T09:19:30;8.93;;;2.10;;
11791;SDS011;5953;52.372;9.918;2023-04-25T09:22:02;6.43;;;1.90;;
11791;SDS011;5953;52.372;9.918;2023-04-25T09:24:32;9.37;;;2.07;;
11791;SDS011;5953;52.372;9.918;2023-04-25T09:27:05;5.57;;;2.00;;
11791;SDS011;5953;52.372;9.918;2023-04-25T09:29:34;6.87;;;1.90;;
11791;SDS011;5953;52.372;9.918;2023-04-25T09:34:52;8.17;;;1.47;;
11791;SDS011;5953;52.372;9.918;2023-04-25T09:37:23;6.63;;;1.63;;
11791;SDS011;5953;52.372;9.918;2023-04-25T09:39:52;6.70;;;1.80;;
11791;SDS011;5953;52.372;9.918;2023-04-25T09:42:22;5.67;;;1.57;;
11791;SDS011;5953;52.372;9.918;2023-04-25T09:44:51;7.23;;;1.53;;
11791;SDS011;5953;52.372;9.918;2023-04-25T09:47:21;7.47;;;1.90;;
11791;SDS011;5953;52.372;9.918;2023-04-25T09:49:51;3.37;;;1.43;;
11791;SDS011;5953;52.372;9.918;2023-04-25T09:52:22;3.70;;;1.27;;
11791;SDS011;5953;52.372;9.918;2023-04-25T09:54:51;6.23;;;1.43;;
11791;SDS011;5953;52.372;9.918;2023-04-25T09:57:20;5.40;;;1.30;;
11791;SDS011;5953;52.372;9.918;2023-04-25T09:59:50;4.40;;;1.30;;
11791;SDS011;5953;52.372;9.918;2023-04-25T10:02:20;3.70;;;1.10;;
11791;SDS011;5953;52.372;9.918;2023-04-25T10:04:49;6.37;;;1.67;;
11791;SDS011;5953;52.372;9.918;2023-04-25T10:07:24;3.53;;;1.10;;
11791;SDS011;5953;52.372;9.918;2023-04-25T10:09:55;4.47;;;1.47;;
11791;SDS011;5953;52.372;9.918;2023-04-25T10:12:26;6.23;;;1.50;;
11791;SDS011;5953;52.372;9.918;2023-04-25T10:14:54;3.83;;;1.40;;
11791;SDS011;5953;52.372;9.918;2023-04-25T10:17:22;4.43;;;1.57;;
11791;SDS011;5953;52.372;9.918;2023-04-25T10:19:51;3.63;;;1.50;;
11791;SDS011;5953;52.372;9.918;2023-04-25T10:22:20;3.93;;;1.30;;
11791;SDS011;5953;52.372;9.918;2023-04-25T10:24:56;5.67;;;1.67;;
11791;SDS011;5953;52.372;9.918;2023-04-25T10:27:24;4.97;;;1.80;;
11791;SDS011;5953;52.372;9.918;2023-04-25T10:30:00;6.00;;;1.63;;
11791;SDS011;5953;52.372;9.918;2023-04-25T10:32:30;4.40;;;1.70;;
11791;SDS011;5953;52.372;9.918;2023-04-25T10:35:04;8.77;;;1.33;;
11791;SDS011;5953;52.372;9.918;2023-04-25T10:37:39;5.47;;;1.30;;
11791;SDS011;5953;52.372;9.918;2023-04-25T10:40:25;5.07;;;1.60;;
11791;SDS011;5953;52.372;9.918;2023-04-25T10:42:53;4.47;;;1.70;;
11791;SDS011;5953;52.372;9.918;2023-04-25T10:45:22;8.20;;;2.20;;
11791;SDS011;5953;52.372;9.918;2023-04-25T10:47:50;6.73;;;1.80;;
11791;SDS011;5953;52.372;9.918;2023-04-25T10:50:18;8.90;;;1.73;;
11791;SDS011;5953;52.372;9.918;2023-04-25T10:52:47;6.47;;;1.73;;
11791;SDS011;5953;52.372;9.918;2023-04-25T10:55:15;5.77;;;2.30;;
11791;SDS011;5953;52.372;9.918;2023-04-25T10:57:44;3.37;;;1.17;;
11791;SDS011;5953;52.372;9.918;2023-04-25T11:00:15;5.10;;;1.63;;
11791;SDS011;5953;52.372;9.918;2023-04-25T11:02:45;8.23;;;2.13;;
11791;SDS011;5953;52.372;9.918;2023-04-25T11:05:19;3.80;;;2.00;;
11791;SDS011;5953;52.372;9.918;2023-04-25T11:07:51;7.43;;;1.47;;
11791;SDS011;5953;52.372;9.918;2023-04-25T11:10:32;5.43;;;1.73;;
11791;SDS011;5953;52.372;9.918;2023-04-25T11:13:01;10.60;;;1.60;;
11791;SDS011;5953;52.372;9.918;2023-04-25T11:15:30;4.03;;;1.57;;
11791;SDS011;5953;52.372;9.918;2023-04-25T11:17:57;6.13;;;1.60;;
11791;SDS011;5953;52.372;9.918;2023-04-25T11:20:26;3.67;;;1.10;;
11791;SDS011;5953;52.372;9.918;2023-04-25T11:22:57;2.43;;;1.00;;
11791;SDS011;5953;52.372;9.918;2023-04-25T11:25:26;5.37;;;1.10;;
11791;SDS011;5953;52.372;9.918;2023-04-25T11:27:55;4.63;;;1.27;;
11791;SDS011;5953;52.372;9.918;2023-04-25T11:30:24;4.07;;;1.20;;
11791;SDS011;5953;52.372;9.918;2023-04-25T11:32:53;3.77;;;1.77;;
11791;SDS011;5953;52.372;9.918;2023-04-25T11:35:21;2.40;;;1.00;;
11791;SDS011;5953;52.372;9.918;2023-04-25T11:37:51;2.00;;;1.00;;
11791;SDS011;5953;52.372;9.918;2023-04-25T11:40:21;5.00;;;1.20;;
11791;SDS011;5953;52.372;9.918;2023-04-25T11:42:49;3.50;;;1.10;;
11791;SDS011;5953;52.372;9.918;2023-04-25T11:45:20;4.57;;;1.37;;
11791;SDS011;5953;52.372;9.918;2023-04-25T11:47:50;4.23;;;1.53;;
11791;SDS011;5953;52.372;9.918;2023-04-25T11:50:19;8.10;;;2.07;;
11791;SDS011;5953;52.372;9.918;2023-04-25T11:52:47;9.20;;;2.10;;
11791;SDS011;5953;52.372;9.918;2023-04-25T11:55:16;9.23;;;2.17;;
11791;SDS011;5953;52.372;9.918;2023-04-25T11:57:46;7.13;;;1.47;;
11791;SDS011;5953;52.372;9.918;2023-04-25T12:00:17;8.50;;;1.60;;
11791;SDS011;5953;52.372;9.918;2023-04-25T12:02:47;5.37;;;1.43;;
11791;SDS011;5953;52.372;9.918;2023-04-25T12:05:15;5.50;;;1.30;;
11791;SDS011;5953;52.372;9.918;2023-04-25T12:07:46;4.93;;;1.57;;
11791;SDS011;5953;52.372;9.918;2023-04-25T12:10:14;6.20;;;1.50;;
11791;SDS011;5953;52.372;9.918;2023-04-25T12:12:44;2.73;;;1.27;;
11791;SDS011;5953;52.372;9.918;2023-04-25T12:15:15;5.10;;;1.60;;
11791;SDS011;5953;52.372;9.918;2023-04-25T12:17:45;7.87;;;2.53;;
11791;SDS011;5953;52.372;9.918;2023-04-25T12:20:15;6.40;;;2.27;;
11791;SDS011;5953;52.372;9.918;2023-04-25T12:22:44;9.33;;;2.07;;
11791;SDS011;5953;52.372;9.918;2023-04-25T12:25:20;7.50;;;1.90;;
11791;SDS011;5953;52.372;9.918;2023-04-25T12:28:10;6.47;;;1.63;;
11791;SDS011;5953;52.372;9.918;2023-04-25T12:30:54;6.03;;;1.47;;
11791;SDS011;5953;52.372;9.918;2023-04-25T12:33:23;5.37;;;1.43;;
11791;SDS011;5953;52.372;9.918;2023-04-25T12:35:52;3.87;;;1.10;;
11791;SDS011;5953;52.372;9.918;2023-04-25T12:38:20;5.73;;;1.40;;
11791;SDS011;5953;52.372;9.918;2023-04-25T12:40:49;3.53;;;1.10;;
11791;SDS011;5953;52.372;9.918;2023-04-25T12:43:18;3.67;;;0.80;;
11791;SDS011;5953;52.372;9.918;2023-04-25T12:45:47;4.60;;;1.50;;
11791;SDS011;5953;52.372;9.918;2023-04-25T12:48:16;5.03;;;1.10;;
11791;SDS011;5953;52.372;9.918;2023-04-25T12:50:44;5.83;;;1.33;;
11791;SDS011;5953;52.372;9.918;2023-04-25T12:53:15;6.10;;;1.33;;
11791;SDS011;5953;52.372;9.918;2023-04-25T12:55:43;3.00;;;1.30;;
11791;SDS011;5953;52.372;9.918;2023-04-25T12:58:12;3.00;;;0.80;;
11791;SDS011;5953;52.372;9.918;2023-04-25T13:00:42;2.00;;;0.70;;
11791;SDS011;5953;52.372;9.918;2023-04-25T13:03:10;1.43;;;0.67;;
11791;SDS011;5953;52.372;9.918;2023-04-25T13:05:39;3.50;;;0.63;;
11791;SDS011;5953;52.372;9.918;2023-04-25T13:08:07;3.03;;;0.90;;
11791;SDS011;5953;52.372;9.918;2023-04-25T13:10:35;1.27;;;0.57;;
11791;SDS011;5953;52.372;9.918;2023-04-25T13:13:04;2.40;;;0.40;;
11791;SDS011;5953;52.372;9.918;2023-04-25T13:15:32;1.17;;;0.60;;
11791;SDS011;5953;52.372;9.918;2023-04-25T13:18:01;2.40;;;1.13;;
11791;SDS011;5953;52.372;9.918;2023-04-25T13:20:30;1.87;;;0.70;;
11791;SDS011;5953;52.372;9.918;2023-04-25T13:22:58;2.30;;;0.70;;
11791;SDS011;5953;52.372;9.918;2023-04-25T13:25:28;2.53;;;0.70;;
11791;SDS011;5953;52.372;9.918;2023-04-25T13:27:56;3.00;;;1.03;;
11791;SDS011;5953;52.372;9.918;2023-04-25T13:30:24;2.57;;;1.10;;
11791;SDS011;5953;52.372;9.918;2023-04-25T13:32:53;3.00;;;0.90;;
11791;SDS011;5953;52.372;9.918;2023-04-25T13:35:24;2.47;;;1.00;;
11791;SDS011;5953;52.372;9.918;2023-04-25T13:37:52;4.20;;;1.10;;
11791;SDS011;5953;52.372;9.918;2023-04-25T13:40:20;5.10;;;1.23;;
11791;SDS011;5953;52.372;9.918;2023-04-25T13:42:51;8.43;;;1.60;;
11791;SDS011;5953;52.372;9.918;2023-04-25T13:45:19;7.13;;;1.47;;
11791;SDS011;5953;52.372;9.918;2023-04-25T13:47:47;2.60;;;1.00;;
11791;SDS011;5953;52.372;9.918;2023-04-25T13:50:16;9.23;;;4.13;;
11791;SDS011;5953;52.372;9.918;2023-04-25T13:52:46;8.33;;;2.60;;
11791;SDS011;5953;52.372;9.918;2023-04-25T13:55:13;10.60;;;4.73;;
11791;SDS011;5953;52.372;9.918;2023-04-25T13:57:42;13.80;;;5.43;;
11791;SDS011;5953;52.372;9.918;2023-04-25T14:00:12;8.50;;;2.37;;
11791;SDS011;5953;52.372;9.918;2023-04-25T14:02:50;3.10;;;1.53;;
11791;SDS011;5953;52.372;9.918;2023-04-25T14:05:18;4.37;;;1.60;;
11791;SDS011;5953;52.372;9.918;2023-04-25T14:07:47;3.27;;;1.60;;
11791;SDS011;5953;52.372;9.918;2023-04-25T14:10:15;6.40;;;1.50;;
11791;SDS011;5953;52.372;9.918;2023-04-25T14:12:43;3.43;;;1.43;;
11791;SDS011;5953;52.372;9.918;2023-04-25T14:15:11;3.03;;;0.80;;
11791;SDS011;5953;52.372;9.918;2023-04-25T14:17:39;2.17;;;1.13;;
11791;SDS011;5953;52.372;9.918;2023-04-25T14:20:08;3.47;;;1.00;;
11791;SDS011;5953;52.372;9.918;2023-04-25T14:22:37;3.03;;;1.00;;
11791;SDS011;5953;52.372;9.918;2023-04-25T14:25:11;1.20;;;0.70;;
11791;SDS011;5953;52.372;9.918;2023-04-25T14:27:38;3.90;;;1.73;;
11791;SDS011;5953;52.372;9.918;2023-04-25T14:30:07;1.10;;;0.80;;
11791;SDS011;5953;52.372;9.918;2023-04-25T14:32:36;1.93;;;1.10;;
11791;SDS011;5953;52.372;9.918;2023-04-25T14:35:04;2.77;;;0.80;;
11791;SDS011;5953;52.372;9.918;2023-04-25T14:37:33;3.87;;;0.90;;
11791;SDS011;5953;52.372;9.918;2023-04-25T14:40:01;3.40;;;1.30;;
11791;SDS011;5953;52.372;9.918;2023-04-25T14:42:30;1.97;;;0.90;;
11791;SDS011;5953;52.372;9.918;2023-04-25T14:45:00;5.83;;;1.30;;
11791;SDS011;5953;52.372;9.918;2023-04-25T14:47:28;2.27;;;0.73;;
11791;SDS011;5953;52.372;9.918;2023-04-25T14:49:56;3.17;;;1.00;;
11791;SDS011;5953;52.372;9.918;2023-04-25T14:52:24;3.00;;;1.20;;
11791;SDS011;5953;52.372;9.918;2023-04-25T14:54:52;4.83;;;1.30;;
11791;SDS011;5953;52.372;9.918;2023-04-25T14:57:20;1.63;;;0.90;;
11791;SDS011;5953;52.372;9.918;2023-04-25T14:59:49;4.47;;;1.47;;
11791;SDS011;5953;52.372;9.918;2023-04-25T15:02:17;2.13;;;0.80;;
11791;SDS011;5953;52.372;9.918;2023-04-25T15:04:44;3.10;;;1.10;;
11791;SDS011;5953;52.372;9.918;2023-04-25T15:07:12;4.10;;;1.30;;
11791;SDS011;5953;52.372;9.918;2023-04-25T15:09:43;2.87;;;1.13;;